createdAt,value
2023-11-02T00:00:10.694Z,100882.97
2023-11-02T00:02:41.887Z,100890.28
2023-11-02T00:06:01.689Z,100891.50
2023-11-02T00:08:38.258Z,100896.00
2023-11-02T00:11:09.659Z,100895.59
2023-11-02T00:13:39.413Z,100893.16
2023-11-02T00:16:09.904Z,100896.44
2023-11-02T00:18:41.113Z,100907.81
2023-11-02T00:21:24.974Z,100902.50
2023-11-02T00:23:54.606Z,100896.41
2023-11-02T00:26:26.214Z,100897.63
2023-11-02T00:28:56.284Z,100893.59
2023-11-02T00:31:25.910Z,100887.09
2023-11-02T00:33:57.353Z,100891.97
2023-11-02T00:36:27.111Z,100890.75
2023-11-02T00:38:59.910Z,100882.19
2023-11-02T00:41:29.695Z,100883.44
2023-11-02T00:43:59.854Z,100884.66
2023-11-02T00:46:30.014Z,100886.69
2023-11-02T00:49:01.381Z,100886.69
2023-11-02T00:51:32.879Z,100887.50
2023-11-02T00:54:04.290Z,100892.38
2023-11-02T00:56:39.088Z,100894.00
2023-11-02T00:59:09.121Z,100894.81
2023-11-02T01:01:39.348Z,100891.97
2023-11-02T01:04:58.139Z,100889.53
2023-11-02T01:07:30.430Z,100883.84
2023-11-02T01:10:04.989Z,100883.44
2023-11-02T01:12:52.346Z,100877.72
2023-11-02T01:16:12.968Z,100883.06
2023-11-02T01:18:48.233Z,100883.88
2023-11-02T01:21:19.861Z,100886.72
2023-11-02T01:23:59.857Z,100884.66
2023-11-02T01:27:03.247Z,100881.81
2023-11-02T01:29:33.590Z,100893.59
2023-11-02T01:32:05.029Z,100893.19
2023-11-02T01:34:35.551Z,100899.72
2023-11-02T01:37:06.945Z,100896.88
2023-11-02T01:40:11.292Z,100894.81
2023-11-02T01:42:46.737Z,100899.72
2023-11-02T01:45:27.215Z,100894.03
2023-11-02T01:48:12.542Z,100896.03
2023-11-02T01:50:54.862Z,100898.47
2023-11-02T01:53:44.214Z,100899.28
2023-11-02T01:56:35.917Z,100912.31
2023-11-02T01:59:36.877Z,100910.66
2023-11-02T02:02:29.321Z,100909.44
2023-11-02T02:05:11.797Z,100914.75
2023-11-02T02:08:03.193Z,100914.34
2023-11-02T02:11:00.546Z,100913.13
2023-11-02T02:13:48.044Z,100920.44
2023-11-02T02:16:36.285Z,100920.03
2023-11-02T02:19:35.571Z,100918.81
2023-11-02T02:22:13.507Z,100922.50
2023-11-02T02:24:55.571Z,100924.91
2023-11-02T02:28:17.131Z,100931.81
2023-11-02T02:31:23.558Z,100933.84
2023-11-02T02:34:51.690Z,100934.66
2023-11-02T02:37:42.337Z,100935.50
2023-11-02T02:40:20.908Z,100935.88
2023-11-02T02:42:52.965Z,100931.03
2023-11-02T02:45:24.822Z,100931.44
2023-11-02T02:47:57.394Z,100938.34
2023-11-02T02:50:31.608Z,100939.56
2023-11-02T02:53:06.770Z,100943.19
2023-11-02T02:55:40.961Z,100937.94
2023-11-02T02:58:15.694Z,100945.63
2023-11-02T03:00:47.405Z,100941.13
2023-11-02T03:03:25.294Z,100939.50
2023-11-02T03:05:58.912Z,100942.75
2023-11-02T03:08:33.492Z,100943.97
2023-11-02T03:11:12.653Z,100945.19
2023-11-02T03:13:49.163Z,100944.38
2023-11-02T03:16:23.128Z,100950.06
2023-11-02T03:18:52.951Z,100945.59
2023-11-02T03:21:22.785Z,100957.75
2023-11-02T03:24:10.012Z,100950.88
2023-11-02T03:26:57.573Z,100952.91
2023-11-02T03:29:53.970Z,100955.75
2023-11-02T03:32:32.226Z,100960.59
2023-11-02T03:35:17.205Z,100960.59
2023-11-02T03:38:03.442Z,100971.19
2023-11-02T03:41:01.903Z,100967.53
2023-11-02T03:43:45.043Z,100966.72
2023-11-02T03:46:38.779Z,100969.97
2023-11-02T03:49:26.945Z,100973.19
2023-11-02T03:52:11.829Z,100976.03
2023-11-02T03:55:06.300Z,100969.97
2023-11-02T03:57:58.503Z,100971.97
2023-11-02T04:00:30.053Z,100975.22
2023-11-02T04:03:04.921Z,100967.09
2023-11-02T04:05:41.351Z,100978.06
2023-11-02T04:08:18.823Z,100982.94
2023-11-02T04:10:59.824Z,100976.03
2023-11-02T04:13:42.376Z,100983.75
2023-11-02T04:16:12.037Z,100985.75
2023-11-02T04:18:45.085Z,100979.69
2023-11-02T04:21:15.713Z,100983.34
2023-11-02T04:23:45.465Z,100984.97
2023-11-02T04:26:15.540Z,100985.75
2023-11-02T04:28:46.698Z,100985.75
2023-11-02T04:31:16.437Z,100985.75
2023-11-02T04:33:46.798Z,100994.28
2023-11-02T04:36:16.464Z,101002.81
2023-11-02T04:38:46.329Z,101001.59
2023-11-02T04:41:15.935Z,101012.16
2023-11-02T04:43:47.706Z,101015.44
2023-11-02T04:46:17.997Z,101010.53
2023-11-02T04:48:47.897Z,101014.59
2023-11-02T04:51:17.946Z,101017.84
2023-11-02T04:53:47.612Z,101018.69
2023-11-02T04:56:21.105Z,101021.53
2023-11-02T04:58:52.221Z,101022.75
2023-11-02T05:01:22.034Z,101024.00
2023-11-02T05:03:53.001Z,101029.28
2023-11-02T05:06:22.910Z,101030.50
2023-11-02T05:08:52.552Z,101034.16
2023-11-02T05:11:36.919Z,101037.03
2023-11-02T05:14:10.800Z,101041.06
2023-11-02T05:16:40.511Z,101041.06
2023-11-02T05:19:12.411Z,101048.81
2023-11-02T05:21:51.114Z,101050.44
2023-11-02T05:24:20.776Z,101047.16
2023-11-02T05:26:50.458Z,101049.63
2023-11-02T05:29:22.823Z,101052.47
2023-11-02T05:31:52.964Z,101056.50
2023-11-02T05:34:22.703Z,101058.13
2023-11-02T05:36:52.463Z,101052.09
2023-11-02T05:39:22.511Z,101054.50
2023-11-02T05:41:52.313Z,101052.91
2023-11-02T05:44:23.656Z,101061.41
2023-11-02T05:46:54.164Z,101058.56
2023-11-02T05:49:23.921Z,101067.91
2023-11-02T05:51:53.559Z,101058.56
2023-11-02T05:54:36.592Z,101068.28
2023-11-02T05:57:07.502Z,101067.06
2023-11-02T05:59:38.595Z,101069.50
2023-11-02T06:02:09.021Z,101068.25
2023-11-02T06:04:38.729Z,101063.34
2023-11-02T06:07:08.560Z,101070.66
2023-11-02T06:09:39.917Z,101072.25
2023-11-02T06:12:10.745Z,101070.22
2023-11-02T06:14:44.073Z,101070.56
2023-11-02T06:17:14.451Z,101073.38
2023-11-02T06:19:44.207Z,101071.72
2023-11-02T06:22:15.817Z,101063.94
2023-11-02T06:24:47.305Z,101060.63
2023-11-02T06:27:19.791Z,101062.22
2023-11-02T06:29:51.630Z,101066.69
2023-11-02T06:32:21.638Z,101060.91
2023-11-02T06:34:51.276Z,101067.75
2023-11-02T06:37:22.454Z,101063.66
2023-11-02T06:39:52.064Z,101055.81
2023-11-02T06:42:21.882Z,101059.44
2023-11-02T06:44:53.105Z,101051.66
2023-11-02T06:47:22.842Z,101056.06
2023-11-02T06:49:52.509Z,101056.81
2023-11-02T06:52:22.221Z,101060.44
2023-11-02T06:54:51.874Z,101057.09
2023-11-02T06:57:21.719Z,101052.94
2023-11-02T06:59:53.555Z,101050.84
2023-11-02T07:02:24.675Z,101055.69
2023-11-02T07:04:59.442Z,101045.41
2023-11-02T07:07:29.215Z,101038.41
2023-11-02T07:09:59.594Z,101048.16
2023-11-02T07:12:29.216Z,101044.81
2023-11-02T07:15:00.367Z,101044.38
2023-11-02T07:17:34.931Z,101042.66
2023-11-02T07:20:05.034Z,101045.84
2023-11-02T07:22:37.782Z,101045.78
2023-11-02T07:25:13.390Z,101047.75
2023-11-02T07:27:43.358Z,101043.16
2023-11-02T07:30:16.634Z,101048.41
2023-11-02T07:32:46.639Z,101048.75
2023-11-02T07:35:16.330Z,101044.59
2023-11-02T07:37:55.271Z,101044.94
2023-11-02T07:40:25.442Z,101044.88
2023-11-02T07:42:55.192Z,101039.09
2023-11-02T07:45:26.907Z,101041.09
2023-11-02T07:47:56.656Z,101034.06
2023-11-02T07:50:26.345Z,101025.81
2023-11-02T07:52:56.032Z,101033.88
2023-11-02T07:55:25.792Z,101020.78
2023-11-02T07:57:57.085Z,101023.59
2023-11-02T08:00:31.838Z,101019.44
2023-11-02T08:03:02.179Z,101016.94
2023-11-02T08:05:35.401Z,101014.81
2023-11-02T08:08:05.296Z,101015.59
2023-11-02T08:10:35.589Z,101011.03
2023-11-02T08:13:05.288Z,100997.91
2023-11-02T08:15:36.829Z,100999.94
2023-11-02T08:18:23.216Z,100994.97
2023-11-02T08:20:53.884Z,100998.63
2023-11-02T08:23:23.595Z,100995.75
2023-11-02T08:25:53.372Z,100995.38
2023-11-02T08:28:23.148Z,100996.25
2023-11-02T08:30:54.452Z,100988.53
2023-11-02T08:33:24.670Z,100984.91
2023-11-02T08:35:54.476Z,100984.56
2023-11-02T08:38:24.122Z,100981.72
2023-11-02T08:40:53.987Z,100981.38
2023-11-02T08:43:24.607Z,100981.41
2023-11-02T08:45:55.868Z,100976.56
2023-11-02T08:48:25.517Z,100972.16
2023-11-02T08:50:55.395Z,100971.38
2023-11-02T08:53:25.071Z,100970.66
2023-11-02T08:55:54.745Z,100968.66
2023-11-02T08:58:24.429Z,100967.91
2023-11-02T09:00:55.754Z,100965.91
2023-11-02T09:03:25.506Z,100958.19
2023-11-02T09:05:55.392Z,100959.84
2023-11-02T09:08:25.085Z,100962.31
2023-11-02T09:10:54.663Z,100962.31
2023-11-02T09:13:24.364Z,100953.38
2023-11-02T09:15:55.577Z,100951.75
2023-11-02T09:18:25.201Z,100948.50
2023-11-02T09:20:56.024Z,100942.78
2023-11-02T09:23:27.724Z,100939.53
2023-11-02T09:25:58.536Z,100939.53
2023-11-02T09:28:31.131Z,100935.88
2023-11-02T09:31:06.701Z,100935.50
2023-11-02T09:33:36.824Z,100929.41
2023-11-02T09:36:08.532Z,100913.94
2023-11-02T09:38:40.204Z,100913.97
2023-11-02T09:41:10.175Z,100909.94
2023-11-02T09:43:42.641Z,100916.53
2023-11-02T09:46:15.443Z,100908.81
2023-11-02T09:48:45.477Z,100908.84
2023-11-02T09:51:15.767Z,100901.16
2023-11-02T09:53:45.465Z,100900.41
2023-11-02T09:56:17.756Z,100889.03
2023-11-02T09:58:48.106Z,100891.50
2023-11-02T10:01:20.762Z,100892.31
2023-11-02T10:03:50.384Z,100894.00
2023-11-02T10:06:20.721Z,100890.75
2023-11-02T10:08:50.373Z,100884.69
2023-11-02T10:11:21.586Z,100882.25
2023-11-02T10:13:52.268Z,100881.88
2023-11-02T10:16:28.078Z,100883.09
2023-11-02T10:18:57.993Z,100873.34
2023-11-02T10:21:27.813Z,100877.44
2023-11-02T10:24:00.469Z,100872.16
2023-11-02T10:26:30.854Z,100866.91
2023-11-02T10:29:03.877Z,100871.00
2023-11-02T10:31:38.133Z,100858.72
2023-11-02T10:34:11.147Z,100856.31
2023-11-02T10:36:41.351Z,100856.75
2023-11-02T10:39:11.731Z,100850.66
2023-11-02T10:41:42.034Z,100850.28
2023-11-02T10:44:12.941Z,100847.84
2023-11-02T10:46:46.380Z,100849.50
2023-11-02T10:49:18.134Z,100849.16
2023-11-02T10:51:53.706Z,100843.84
2023-11-02T10:54:38.060Z,100845.53
2023-11-02T10:57:17.971Z,100850.06
2023-11-02T10:59:49.400Z,100851.72
2023-11-02T11:02:21.883Z,100852.13
2023-11-02T11:04:52.110Z,100842.41
2023-11-02T11:07:23.957Z,100843.59
2023-11-02T11:09:54.734Z,100835.88
2023-11-02T11:12:26.140Z,100837.56
2023-11-02T11:14:57.789Z,100839.63
2023-11-02T11:17:29.722Z,100840.47
2023-11-02T11:20:02.669Z,100845.34
2023-11-02T11:22:36.411Z,100829.47
2023-11-02T11:25:10.064Z,100833.97
2023-11-02T11:27:41.825Z,100829.94
2023-11-02T11:30:41.294Z,100835.25
2023-11-02T11:33:52.710Z,100831.66
2023-11-02T11:36:23.915Z,100831.72
2023-11-02T11:38:55.067Z,100838.22
2023-11-02T11:41:47.718Z,100835.38
2023-11-02T11:44:22.252Z,100837.81
2023-11-02T11:46:55.799Z,100836.22
2023-11-02T11:49:50.506Z,100834.59
2023-11-02T11:52:29.592Z,100835.03
2023-11-02T11:54:59.389Z,100840.34
2023-11-02T11:57:58.957Z,100837.50
2023-11-02T12:00:30.228Z,100834.69
2023-11-02T12:03:05.915Z,100839.16
2023-11-02T12:05:56.461Z,100845.66
2023-11-02T12:08:27.931Z,100840.84
2023-11-02T12:11:00.385Z,100840.00
2023-11-02T12:13:30.940Z,100830.66
2023-11-02T12:16:03.363Z,100832.69
2023-11-02T12:18:35.661Z,100831.09
2023-11-02T12:21:16.888Z,100826.19
2023-11-02T12:23:47.091Z,100823.75
2023-11-02T12:26:17.496Z,100825.00
2023-11-02T12:28:50.584Z,100825.78
2023-11-02T12:31:32.710Z,100825.38
2023-11-02T12:34:05.249Z,100819.69
2023-11-02T12:36:37.441Z,100818.47
2023-11-02T12:39:16.134Z,100822.13
2023-11-02T12:41:49.172Z,100824.16
2023-11-02T12:44:21.593Z,100820.50
2023-11-02T12:46:54.807Z,100825.41
2023-11-02T12:49:27.253Z,100820.13
2023-11-02T12:52:11.050Z,100831.09
2023-11-02T12:54:40.922Z,100829.91
2023-11-02T12:57:12.853Z,100837.69
2023-11-02T12:59:43.985Z,100839.72
2023-11-02T13:02:15.494Z,100838.91
2023-11-02T13:04:54.674Z,100835.25
2023-11-02T13:07:33.516Z,100836.47
2023-11-02T13:10:08.254Z,100834.03
2023-11-02T13:12:38.283Z,100826.69
2023-11-02T13:15:11.437Z,100827.94
2023-11-02T13:17:44.941Z,100829.16
2023-11-02T13:20:17.174Z,100834.88
2023-11-02T13:22:49.869Z,100839.38
2023-11-02T13:25:19.869Z,100836.97
2023-11-02T13:27:53.137Z,100831.66
2023-11-02T13:30:24.208Z,100836.19
2023-11-02T13:33:05.724Z,100833.34
2023-11-02T13:35:36.466Z,100835.78
2023-11-02T13:38:10.326Z,100833.75
2023-11-02T13:40:40.209Z,100831.75
2023-11-02T13:43:11.091Z,100842.38
2023-11-02T13:45:41.289Z,100835.03
2023-11-02T13:48:14.620Z,100831.38
2023-11-02T13:50:44.597Z,100826.09
2023-11-02T13:53:18.562Z,100836.28
2023-11-02T13:55:48.578Z,100832.22
2023-11-02T13:58:19.131Z,100833.47
2023-11-02T14:00:49.471Z,100844.03
2023-11-02T14:03:20.917Z,100837.16
2023-11-02T14:05:53.143Z,100851.84
2023-11-02T14:08:27.422Z,100845.31
2023-11-02T14:10:57.233Z,100844.94
2023-11-02T14:13:27.006Z,100851.91
2023-11-02T14:15:57.113Z,100849.44
2023-11-02T14:18:26.814Z,100859.22
2023-11-02T14:20:56.529Z,100857.59
2023-11-02T14:23:28.190Z,100865.38
2023-11-02T14:26:01.079Z,100867.81
2023-11-02T14:28:31.122Z,100873.97
2023-11-02T14:31:00.929Z,100876.81
2023-11-02T14:33:31.664Z,100873.56
2023-11-02T14:36:08.579Z,100877.66
2023-11-02T14:38:39.829Z,100873.19
2023-11-02T14:41:09.910Z,100868.69
2023-11-02T14:43:39.586Z,100866.28
2023-11-02T14:46:10.918Z,100867.50
2023-11-02T14:48:41.356Z,100871.59
2023-11-02T14:51:11.870Z,100874.03
2023-11-02T14:53:44.161Z,100878.13
2023-11-02T14:56:13.918Z,100878.13
2023-11-02T14:58:43.794Z,100877.72
2023-11-02T15:01:13.524Z,100879.75
2023-11-02T15:03:43.841Z,100878.97
2023-11-02T15:06:22.248Z,100889.53
2023-11-02T15:09:01.430Z,100878.56
2023-11-02T15:11:37.879Z,100881.84
2023-11-02T15:14:12.318Z,100886.72
2023-11-02T15:16:46.198Z,100889.56
2023-11-02T15:19:16.029Z,100892.03
2023-11-02T15:21:48.226Z,100902.63
2023-11-02T15:24:19.514Z,100899.78
2023-11-02T15:26:49.479Z,100905.91
2023-11-02T15:29:19.141Z,100904.28
2023-11-02T15:31:48.867Z,100904.28
2023-11-02T15:34:23.203Z,100903.47
2023-11-02T15:36:53.213Z,100914.06
2023-11-02T15:39:26.203Z,100913.25
2023-11-02T15:41:59.888Z,100918.56
2023-11-02T15:44:29.772Z,100918.97
2023-11-02T15:47:04.738Z,100916.94
2023-11-02T15:49:36.072Z,100928.75
2023-11-02T15:52:06.461Z,100931.59
2023-11-02T15:54:39.398Z,100931.59
2023-11-02T15:57:12.216Z,100930.81
2023-11-02T15:59:43.792Z,100938.53
2023-11-02T16:02:14.862Z,100927.13
2023-11-02T16:04:46.949Z,100929.97
2023-11-02T16:07:17.101Z,100931.25
2023-11-02T16:09:49.285Z,100925.53
2023-11-02T16:12:19.170Z,100932.47
2023-11-02T16:14:48.910Z,100934.47
2023-11-02T16:17:18.918Z,100935.31
2023-11-02T16:19:48.738Z,100934.47
2023-11-02T16:22:18.451Z,100935.72
2023-11-02T16:24:49.807Z,100928.78
2023-11-02T16:27:19.693Z,100927.16
2023-11-02T16:29:49.389Z,100925.13
2023-11-02T16:32:19.367Z,100932.06
2023-11-02T16:34:58.690Z,100936.13
2023-11-02T16:37:36.821Z,100935.34
2023-11-02T16:40:13.607Z,100939.00
2023-11-02T16:42:43.394Z,100933.72
2023-11-02T16:45:14.462Z,100933.72
2023-11-02T16:47:44.278Z,100936.56
2023-11-02T16:50:18.344Z,100934.50
2023-11-02T16:52:48.149Z,100929.25
2023-11-02T16:55:20.205Z,100936.56
2023-11-02T16:57:50.601Z,100937.78
2023-11-02T17:00:21.040Z,100934.13
2023-11-02T17:02:50.900Z,100928.41
2023-11-02T17:05:22.413Z,100936.97
2023-11-02T17:07:52.194Z,100934.53
2023-11-02T17:10:23.574Z,100940.25
2023-11-02T17:12:56.173Z,100935.78
2023-11-02T17:15:27.273Z,100943.09
2023-11-02T17:17:57.034Z,100961.41
2023-11-02T17:20:26.704Z,100952.06
2023-11-02T17:23:00.499Z,100948.41
2023-11-02T17:25:32.448Z,100952.06
2023-11-02T17:28:02.437Z,100964.69
2023-11-02T17:30:32.210Z,100959.00
2023-11-02T17:33:02.136Z,100956.16
2023-11-02T17:35:31.856Z,100955.31
2023-11-02T17:38:03.349Z,100959.41
2023-11-02T17:40:34.553Z,100946.38
2023-11-02T17:43:14.537Z,100955.75
2023-11-02T17:45:44.582Z,100954.91
2023-11-02T17:48:17.242Z,100959.03
2023-11-02T17:50:48.251Z,100969.59
2023-11-02T17:53:27.107Z,100961.88
2023-11-02T17:55:58.858Z,100961.47
2023-11-02T17:58:32.836Z,100963.50
2023-11-02T18:01:08.155Z,100965.53
2023-11-02T18:03:38.103Z,100968.41
2023-11-02T18:06:09.987Z,100968.41
2023-11-02T18:08:40.106Z,100965.94
2023-11-02T18:11:11.386Z,100963.94
2023-11-02T18:13:41.216Z,100970.06
2023-11-02T18:16:14.874Z,100974.50
2023-11-02T18:18:44.801Z,100969.22
2023-11-02T18:21:14.608Z,100978.59
2023-11-02T18:23:44.324Z,100975.75
2023-11-02T18:26:16.648Z,100979.81
2023-11-02T18:28:46.581Z,100988.38
2023-11-02T18:31:19.601Z,100983.47
2023-11-02T18:33:52.319Z,100982.69
2023-11-02T18:36:23.666Z,100981.03
2023-11-02T18:39:28.612Z,100986.75
2023-11-02T18:42:17.851Z,100993.25
2023-11-02T18:45:31.914Z,100989.63
2023-11-02T18:48:06.217Z,100989.22
2023-11-02T18:50:35.953Z,100985.53
2023-11-02T18:53:10.618Z,100979.84
2023-11-02T18:55:44.350Z,100978.25
2023-11-02T18:58:17.208Z,100971.28
2023-11-02T19:00:47.081Z,100983.94
2023-11-02T19:03:16.945Z,100970.50
2023-11-02T19:05:47.952Z,100981.09
2023-11-02T19:08:19.629Z,100978.25
2023-11-02T19:10:49.451Z,100968.84
2023-11-02T19:13:21.085Z,100972.91
2023-11-02T19:15:51.715Z,100974.13
2023-11-02T19:18:22.261Z,100982.69
2023-11-02T19:20:54.807Z,100975.38
2023-11-02T19:23:24.805Z,100974.13
2023-11-02T19:25:54.759Z,100981.06
2023-11-02T19:28:26.015Z,100981.06
2023-11-02T19:30:55.986Z,100975.00
2023-11-02T19:33:25.870Z,100977.84
2023-11-02T19:35:55.658Z,100987.59
2023-11-02T19:38:25.362Z,100987.59
2023-11-02T19:40:56.596Z,100978.22
2023-11-02T19:43:27.795Z,100985.97
2023-11-02T19:45:58.062Z,100988.00
2023-11-02T19:48:29.457Z,100986.38
2023-11-02T19:50:59.329Z,100996.19
2023-11-02T19:53:29.438Z,100989.66
2023-11-02T19:55:59.207Z,100999.41
2023-11-02T19:58:31.586Z,100991.69
2023-11-02T20:01:01.435Z,100994.94
2023-11-02T20:03:31.407Z,100992.09
2023-11-02T20:06:02.766Z,101005.53
2023-11-02T20:08:33.428Z,100986.81
2023-11-02T20:11:04.675Z,100986.00
2023-11-02T20:13:36.049Z,100988.84
2023-11-02T20:16:06.496Z,100990.09
2023-11-02T20:18:37.783Z,100985.63
2023-11-02T20:21:12.062Z,100994.16
2023-11-02T20:23:41.971Z,101001.47
2023-11-02T20:26:14.826Z,101004.31
2023-11-02T20:28:46.078Z,101005.16
2023-11-02T20:31:24.976Z,101010.03
2023-11-02T20:34:04.200Z,101002.72
2023-11-02T20:36:34.275Z,101002.31
2023-11-02T20:39:04.062Z,100995.81
2023-11-02T20:41:34.229Z,100995.81
2023-11-02T20:44:06.332Z,100983.63
2023-11-02T20:46:39.745Z,100986.06
2023-11-02T20:49:10.595Z,100992.97
2023-11-02T20:51:41.588Z,100989.34
2023-11-02T20:54:12.636Z,100977.94
2023-11-02T20:56:44.912Z,100971.41
2023-11-02T20:59:16.354Z,100974.69
2023-11-02T21:01:46.449Z,100978.75
2023-11-02T21:04:24.427Z,100979.97
2023-11-02T21:07:00.125Z,100982.41
2023-11-02T21:09:31.314Z,100987.31
2023-11-02T21:12:02.873Z,100989.34
2023-11-02T21:14:34.160Z,100987.75
2023-11-02T21:17:04.320Z,100985.28
2023-11-02T21:19:34.120Z,100981.66
2023-11-02T21:22:03.961Z,100980.81
2023-11-02T21:24:40.102Z,100973.50
2023-11-02T21:27:11.534Z,100978.41
2023-11-02T21:29:47.058Z,100974.72
2023-11-02T21:32:16.989Z,100975.97
2023-11-02T21:34:49.363Z,100975.97
2023-11-02T21:37:22.192Z,100975.97
2023-11-02T21:39:52.023Z,100970.66
2023-11-02T21:42:24.037Z,100972.28
2023-11-02T21:44:55.369Z,100976.34
2023-11-02T21:47:25.240Z,100975.56
2023-11-02T21:49:55.024Z,100983.28
2023-11-02T21:52:25.243Z,100985.31
2023-11-02T21:54:55.665Z,100990.19
2023-11-02T21:57:25.794Z,100987.34
2023-11-02T21:59:57.019Z,100984.50
2023-11-02T22:02:26.576Z,100986.97
2023-11-02T22:04:56.677Z,100982.06
2023-11-02T22:07:26.280Z,100975.59
2023-11-02T22:09:56.069Z,100985.34
2023-11-02T22:12:26.556Z,100987.38
2023-11-02T22:14:57.968Z,100999.97
2023-11-02T22:17:27.576Z,100997.13
2023-11-02T22:19:57.173Z,100988.22
2023-11-02T22:22:29.569Z,100999.16
2023-11-02T22:24:59.384Z,101000.41
2023-11-02T22:27:28.925Z,100990.22
2023-11-02T22:30:00.279Z,100996.75
2023-11-02T22:32:29.949Z,101007.31
2023-11-02T22:35:00.105Z,101003.66
2023-11-02T22:37:29.751Z,100998.75
2023-11-02T22:39:59.506Z,101001.59
2023-11-02T22:42:29.027Z,100996.31
2023-11-02T22:45:00.821Z,100999.94
2023-11-02T22:47:30.436Z,101000.38
2023-11-02T22:50:02.120Z,101002.41
2023-11-02T22:52:33.275Z,101014.59
2023-11-02T22:55:02.932Z,101008.09
2023-11-02T22:57:33.394Z,101004.88
2023-11-02T23:00:09.143Z,100999.97
2023-11-02T23:02:38.724Z,100999.56
2023-11-02T23:05:10.326Z,100990.22
2023-11-02T23:07:41.684Z,100990.25
2023-11-02T23:10:12.240Z,100981.28
2023-11-02T23:12:43.132Z,100981.31
2023-11-02T23:15:15.923Z,100980.91
2023-11-02T23:17:45.334Z,100976.03
2023-11-02T23:20:16.222Z,100963.84
2023-11-02T23:22:47.631Z,100960.59
2023-11-02T23:25:17.505Z,100961.81
2023-11-02T23:27:47.065Z,100963.47
2023-11-02T23:30:19.227Z,100968.31
2023-11-02T23:32:51.051Z,100974.00
2023-11-02T23:35:21.193Z,100981.75
2023-11-02T23:37:50.912Z,100974.84
2023-11-02T23:40:21.724Z,100981.75
2023-11-02T23:42:52.852Z,100976.47
2023-11-02T23:45:24.589Z,100978.09
2023-11-02T23:47:55.001Z,100985.44
2023-11-02T23:50:24.670Z,100981.38
2023-11-02T23:52:54.203Z,100987.88
2023-11-02T23:55:23.898Z,100995.19
2023-11-02T23:57:53.785Z,100993.13
